Wednesday, November 21, 2018, 4:58 AM EST
Back to Local

KPEO, Penn Yan Airport

Location: Penn Yan, NY, United States Lat: 42.65
Local Time: 4:58 AM EST ( 9:58 GMT) Lon: -77.05
Time Zone: US/Eastern Elev: 977 ft

Show me the last for .
Show Decoded

2018-11-21 04:33 METAR KPEO 210933Z AUTO 20014G20KT 10SM BKN028 OVC037 M01/M06 A2992 RMK AO2
                 T10061056 $ =
2018-11-21 03:53 METAR KPEO 210853Z AUTO 22012KT 10SM SCT042 OVC055 M01/M06 A2993 RMK AO2 SLP146
                 T10061056 58022 $ =
2018-11-21 02:53 METAR KPEO 210753Z AUTO 21009KT 10SM OVC036 M01/M06 A2996 RMK AO2 SLP155
                 T10061056 $ =
2018-11-21 01:53 METAR KPEO 210653Z AUTO 21003KT 10SM BKN037 OVC085 M01/M06 A2998 RMK AO2 SLP162
                 T10111056 $ =
2018-11-21 00:53 METAR KPEO 210553Z AUTO 24008KT 10SM OVC039 M01/M06 A2999 RMK AO2 SLP167 60000
                 T10111056 11006 21017 58012 $ =
2018-11-21 00:30 METAR KPEO 210530Z AUTO 26004KT 10SM SCT025 BKN032 OVC045 M01/M06 A3001 RMK AO2
                 T10111061 $ =
2018-11-20 23:53 METAR KPEO 210453Z AUTO 31005KT 10SM OVC027 M02/M06 A3002 RMK AO2 SLP175
                 T10171061 400281017 $ =
2018-11-20 22:53 METAR KPEO 210353Z AUTO 00000KT 10SM OVC026 M01/M06 A3002 RMK AO2 SLP176
                 T10111056 $ =
2018-11-20 22:37 METAR KPEO 210337Z AUTO 34003KT 10SM BKN028 OVC035 M01/M06 A3002 RMK AO2
                 T10111061 $ =
2018-11-20 22:20 METAR KPEO 210320Z AUTO 33004KT 10SM OVC030 M01/M06 A3003 RMK AO2 T10111061 $ =
2018-11-20 22:04 METAR KPEO 210304Z AUTO 31004KT 10SM BKN028 OVC037 M01/M06 A3003 RMK AO2
                 T10111056 $ =
2018-11-20 21:53 METAR KPEO 210253Z AUTO 32004KT 10SM BKN030 OVC039 M01/M06 A3003 RMK AO2 SLP181
                 60000 T10111056 50000 $ =
2018-11-20 21:00 METAR KPEO 210200Z AUTO 00000KT 10SM FEW024 BKN030 OVC039 M01/M04 A3004 RMK AO2
                 T10111044 $ =
2018-11-20 20:53 METAR KPEO 210153Z AUTO 00000KT 10SM BKN026 BKN033 OVC042 M01/M04 A3004 RMK AO2
                 SLP184 T10111044 $ =
2018-11-20 20:05 METAR KPEO 210105Z AUTO 26003KT 10SM FEW027 OVC043 M01/M04 A3003 RMK AO2
                 T10061044 $ =
2018-11-20 19:53 METAR KPEO 210053Z AUTO 23003KT 10SM BKN027 BKN040 OVC047 M01/M04 A3003 RMK AO2
                 SNB2358E07 SLP181 P0000 T10111044 $ =
2018-11-20 19:36 METAR KPEO 210036Z AUTO 24005KT 10SM BKN029 OVC039 M01/M04 A3004 RMK AO2
                 SNB2358E07 P0000 T10111044 $ =
2018-11-20 18:53 METAR KPEO 202353Z AUTO 26005KT 10SM SCT025 BKN032 OVC050 M01/M05 A3003 RMK AO2
                 SLP180 60000 T10061050 10028 21011 51011 $ =
2018-11-20 18:38 METAR KPEO 202338Z AUTO 27003KT 10SM BKN027 BKN034 OVC055 M01/M05 A3003 RMK AO2
                 T10061050 $ =
2018-11-20 17:53 METAR KPEO 202253Z AUTO VRB06KT 10SM OVC031 M01/M06 A3002 RMK AO2 SLP175
                 T10061056 $ =
2018-11-20 16:53 METAR KPEO 202153Z AUTO 30007KT 270V330 10SM FEW031 OVC055 00/M05 A3000 RMK AO2
                 SLP168 T00001050 $ =
2018-11-20 15:53 METAR KPEO 202053Z AUTO VRB05KT 10SM OVC065 01/M04 A2997 RMK AO2 SLP160 60000
                 T00061044 53015 $ =
2018-11-20 14:53 METAR KPEO 201953Z AUTO 30009G18KT 280V340 10SM FEW028 OVC050 01/M03 A2995 RMK
                 AO2 SNE42 SLP152 P0000 T00061033 $ =
2018-11-20 14:51 METAR KPEO 201951Z AUTO 29009G18KT 10SM SCT028 OVC049 01/M03 A2995 RMK AO2 SNE42
                 P0000 $ =
2018-11-20 14:28 METAR KPEO 201928Z AUTO 30008G17KT 270V340 3SM -SN BR SCT013 BKN021 OVC027
                 01/M02 A2994 RMK AO2 P0000 T00061017 =
2018-11-20 14:19 METAR KPEO 201919Z AUTO 29010G17KT 2SM -SN BR SCT013 BKN018 OVC028 01/M02 A2994
                 RMK AO2 P0000 T00061017 =
2018-11-20 14:03 METAR KPEO 201903Z AUTO 31009G17KT 7SM -SN SCT016 BKN029 OVC040 02/M02 A2993 RMK
                 AO2 P0000 T00171017 =
2018-11-20 13:53 METAR KPEO 201853Z AUTO 30008KT 270V330 7SM -SN FEW016 BKN036 OVC047 02/M02
                 A2993 RMK AO2 SNB1759 SLP144 P0000 T00171017 =
2018-11-20 13:30 METAR KPEO 201830Z AUTO 30010G18KT 260V330 8SM -SN FEW022 BKN042 OVC049 02/M02
                 A2992 RMK AO2 SNB1759 P0000 T00171017 =
2018-11-20 13:12 METAR KPEO 201812Z AUTO VRB05KT 3SM -SN BR FEW012 BKN019 OVC042 02/M01 A2992 RMK
                 AO2 SNB1759 P0000 T00171006 =
2018-11-20 13:03 METAR KPEO 201803Z AUTO 29008KT 2SM -SN FEW008 BKN018 OVC031 02/M02 A2992 RMK
                 AO2 VIS 1V5 SNB1759 P0000 T00171017 =
2018-11-20 12:53 METAR KPEO 201753Z AUTO 26009KT 10SM BKN022 BKN029 OVC034 03/M02 A2991 RMK AO2
                 SLP137 60000 T00281017 10028 20006 58007 =
2018-11-20 11:53 METAR KPEO 201653Z AUTO 22004KT 10SM BKN015 OVC022 02/M01 A2992 RMK AO2 SLP140
                 T00221006 =
2018-11-20 11:35 METAR KPEO 201635Z AUTO 21003KT 10SM BKN015 BKN020 OVC060 02/M01 A2992 RMK AO2
                 T00171006 =
2018-11-20 11:23 METAR KPEO 201623Z AUTO 25006KT 10SM SCT011 BKN046 OVC060 02/M01 A2993 RMK AO2
                 T00171011 =
2018-11-20 10:53 METAR KPEO 201553Z AUTO 23004KT 9SM BKN011 BKN043 OVC050 02/M01 A2993 RMK AO2
                 SNE43 SLP145 P0000 T00171006 =
2018-11-20 09:53 METAR KPEO 201453Z AUTO 25004KT 3SM -SN BR BKN030 OVC038 01/M01 A2993 RMK AO2
                 SNB21 SLP145 P0000 60000 T00111011 53010 =
2018-11-20 08:53 METAR KPEO 201353Z AUTO 23005KT 10SM FEW047 BKN055 OVC070 01/M01 A2991 RMK AO2
                 SLP136 T00111006 =
2018-11-20 07:53 METAR KPEO 201253Z AUTO 00000KT 10SM FEW044 OVC095 01/M01 A2990 RMK AO2 SLP134
                 T00111011 =
2018-11-20 06:53 METAR KPEO 201153Z AUTO 00000KT 10SM OVC110 01/M02 A2990 RMK AO2 SLP134
                 T00111017 10022 20006 56001 =
2018-11-20 05:53 METAR KPEO 201053Z AUTO 29004KT 10SM OVC037 02/M01 A2990 RMK AO2 SLP134
                 T00171011 =

Support USWX by starting your Amazon purchase here.